Time;durP1;ratioP1;P1;durP2;ratioP2;P2;SDS_P1;SDS_P2;PMS_P1;PMS_P2;Temp;Humidity;BMP_temperature;BMP_pressure;BME280_temperature;BME280_humidity;BME280_pressure;Samples;Min_cycle;Max_cycle;Signal;HPM_P1;HPM_P2
2021/04/09 04:17:01;;;;;;;13.60;8.07;;;;;;;-2.03;82.81;99105.88;5222639;23;20059;-66
2021/04/09 04:19:27;;;;;;;12.82;7.38;;;;;;;-2.05;82.76;99104.94;4954266;28;20035;-66
2021/04/09 04:21:52;;;;;;;19.33;8.75;;;;;;;-2.03;82.81;99100.81;4954093;28;20082;-66
2021/04/09 04:24:17;;;;;;;11.43;7.65;;;;;;;-2.08;83.00;99097.22;4954231;28;20055;-66
2021/04/09 04:26:43;;;;;;;19.65;7.85;;;;;;;-2.08;82.79;99110.78;4954128;29;20027;-66
2021/04/09 04:29:08;;;;;;;14.07;7.68;;;;;;;-2.07;82.77;99093.88;4953952;28;20548;-67
2021/04/09 04:31:33;;;;;;;15.75;7.20;;;;;;;-2.15;83.08;99095.25;4913081;28;20532;-69
2021/04/09 04:33:59;;;;;;;10.73;7.15;;;;;;;-2.17;83.52;99096.88;4975848;28;20042;-71
2021/04/09 04:36:24;;;;;;;16.15;8.63;;;;;;;-2.19;83.61;99093.41;4992736;28;20081;-73
2021/04/09 04:38:50;;;;;;;12.27;7.47;;;;;;;-2.21;83.89;99095.03;4992756;28;20041;-71
2021/04/09 04:41:16;;;;;;;14.70;7.40;;;;;;;-2.19;83.68;99099.34;4992583;28;20022;-71
2021/04/09 04:43:41;;;;;;;13.30;7.50;;;;;;;-2.15;83.61;99097.81;4992499;28;20061;-71
2021/04/09 04:46:06;;;;;;;17.10;9.10;;;;;;;-2.10;83.85;99103.91;4992489;28;20436;-70
2021/04/09 04:48:32;;;;;;;15.82;8.75;;;;;;;-2.15;83.58;99100.34;4992465;28;20118;-70
2021/04/09 04:50:57;;;;;;;15.65;8.15;;;;;;;-2.14;83.61;99102.06;4992522;28;20033;-71
2021/04/09 04:53:22;;;;;;;15.10;8.93;;;;;;;-2.11;83.53;99092.03;4992077;28;20026;-70
2021/04/09 04:55:48;;;;;;;18.77;8.75;;;;;;;-2.10;83.61;99093.75;4991527;28;20030;-70
2021/04/09 04:58:13;;;;;;;16.85;8.63;;;;;;;-2.08;83.67;99103.19;4992232;28;20034;-70
2021/04/09 05:00:38;;;;;;;17.58;8.35;;;;;;;-2.00;83.17;99100.91;4992496;28;20511;-69
2021/04/09 05:03:04;;;;;;;14.80;8.38;;;;;;;-2.07;83.21;99101.50;4992152;28;20701;-70
2021/04/09 05:05:29;;;;;;;18.98;7.97;;;;;;;-2.08;83.06;99109.91;4994481;28;20076;-69
2021/04/09 05:07:54;;;;;;;15.60;8.05;;;;;;;-2.10;83.47;99099.69;4996284;28;20037;-70
2021/04/09 05:10:20;;;;;;;15.07;7.70;;;;;;;-2.02;83.05;99112.69;4996603;28;20026;-70
2021/04/09 05:12:45;;;;;;;15.18;7.85;;;;;;;-2.02;82.85;99107.59;4996010;28;20018;-70
2021/04/09 05:15:12;;;;;;;13.48;8.45;;;;;;;-2.00;82.91;99105.97;4996085;28;20419;-70
2021/04/09 05:17:37;;;;;;;17.10;9.05;;;;;;;-1.94;82.88;99108.72;4995930;28;20161;-70
2021/04/09 05:20:06;;;;;;;17.30;8.20;;;;;;;-1.74;82.31;99108.59;4996149;28;20423;-71
2021/04/09 05:22:32;;;;;;;15.60;8.95;;;;;;;-1.65;82.02;99107.25;4995756;28;20065;-71
2021/04/09 05:24:57;;;;;;;13.65;8.77;;;;;;;-1.49;81.15;99095.97;4994683;28;20463;-71
2021/04/09 05:27:22;;;;;;;13.65;7.80;;;;;;;-1.41;80.74;99099.63;4995999;28;20026;-71
2021/04/09 05:29:48;;;;;;;12.77;8.07;;;;;;;-1.32;80.46;99099.06;4995755;28;20109;-71
2021/04/09 05:32:13;;;;;;;13.05;8.25;;;;;;;-1.26;80.35;99104.34;4994759;28;20258;-71
2021/04/09 05:34:40;;;;;;;12.88;8.30;;;;;;;-1.08;79.96;99099.03;4994732;28;20049;-71
2021/04/09 05:37:06;;;;;;;13.65;7.57;;;;;;;-1.10;79.73;99100.69;4994425;28;20098;-71
2021/04/09 05:39:32;;;;;;;14.43;7.45;;;;;;;-0.93;78.99;99099.53;4994896;28;20085;-71
2021/04/09 05:41:57;;;;;;;14.25;8.40;;;;;;;-0.96;78.81;99093.50;4993061;28;20026;-71
2021/04/09 05:44:22;;;;;;;14.43;7.50;;;;;;;-0.52;77.70;99092.38;4994431;28;20030;-71
2021/04/09 05:46:48;;;;;;;14.93;8.02;;;;;;;-0.53;77.51;99090.66;4994651;28;20029;-71
2021/04/09 05:49:13;;;;;;;14.35;7.43;;;;;;;-0.70;77.45;99077.38;4995579;28;20411;-71
2021/04/09 05:51:38;;;;;;;14.07;7.68;;;;;;;-0.87;78.33;99087.03;4995666;28;20022;-70
2021/04/09 05:54:04;;;;;;;16.85;8.98;;;;;;;-1.07;78.68;99081.28;4995380;28;20026;-71
2021/04/09 05:56:29;;;;;;;14.98;8.80;;;;;;;-0.92;78.80;99085.13;4995416;28;20034;-71
2021/04/09 05:58:55;;;;;;;12.98;8.25;;;;;;;-0.84;78.19;99089.66;4995388;28;20033;-71
2021/04/09 06:01:20;;;;;;;16.70;8.95;;;;;;;-0.88;78.19;99076.78;4995212;28;20049;-70
2021/04/09 06:03:47;;;;;;;15.52;8.75;;;;;;;-0.54;77.25;99073.63;4995207;28;20030;-71
2021/04/09 06:06:13;;;;;;;14.20;8.15;;;;;;;-0.42;77.40;99070.63;4995192;28;20045;-70
2021/04/09 06:08:38;;;;;;;15.82;8.32;;;;;;;-0.18;76.25;99073.88;4995270;28;20034;-71
2021/04/09 06:11:05;;;;;;;17.90;8.65;;;;;;;-0.17;75.76;99065.44;4995118;28;20084;-72
2021/04/09 06:13:30;;;;;;;13.43;8.00;;;;;;;0.02;76.07;99061.72;4995022;28;20073;-71
2021/04/09 06:15:56;;;;;;;12.77;8.20;;;;;;;0.08;74.88;99061.88;4993964;28;20027;-71
2021/04/09 06:18:21;;;;;;;15.27;7.53;;;;;;;0.09;75.59;99063.63;4994584;28;20037;-71
2021/04/09 06:20:46;;;;;;;11.65;7.85;;;;;;;0.20;74.71;99062.25;4995202;28;20036;-71
2021/04/09 06:23:12;;;;;;;17.83;7.45;;;;;;;0.06;75.19;99062.69;4960422;28;20500;-71
2021/04/09 06:25:37;;;;;;;14.52;7.75;;;;;;;0.31;74.17;99064.22;4975384;28;20034;-71
2021/04/09 06:28:02;;;;;;;12.35;7.25;;;;;;;0.68;72.86;99064.38;4975457;28;20035;-71
2021/04/09 06:30:28;;;;;;;15.93;7.43;;;;;;;0.81;72.20;99051.94;4975202;28;20031;-71
2021/04/09 06:32:53;;;;;;;13.10;7.68;;;;;;;1.43;70.99;99057.69;4975210;28;20073;-71
2021/04/09 06:35:18;;;;;;;12.05;8.05;;;;;;;1.33;70.91;99053.19;4975224;28;20062;-71
2021/04/09 06:37:44;;;;;;;16.58;8.13;;;;;;;1.58;70.44;99054.59;4975234;28;20092;-71
2021/04/09 06:40:12;;;;;;;14.10;7.65;;;;;;;1.67;69.58;99050.56;4975133;28;20384;-71
2021/04/09 06:42:37;;;;;;;12.57;6.85;;;;;;;1.72;69.30;99041.31;4975153;28;20027;-71
2021/04/09 06:45:04;;;;;;;14.77;8.00;;;;;;;2.17;68.27;99052.44;4974886;28;20498;-72
2021/04/09 06:47:34;;;;;;;14.95;8.00;;;;;;;2.08;67.74;99048.03;4975308;28;20030;-71
2021/04/09 06:50:00;;;;;;;;;;;;;;;2.46;65.65;99053.00;4975621;28;20503;-71
2021/04/09 06:52:27;;;;;;;16.15;8.13;;;;;;;3.37;63.77;99047.72;4975065;28;19918;-71
2021/04/09 06:54:53;;;;;;;12.23;7.32;;;;;;;3.48;62.66;99044.47;4974892;28;20093;-71
2021/04/09 06:57:19;;;;;;;11.02;7.45;;;;;;;3.42;63.20;99038.38;4974820;28;20038;-71
2021/04/09 06:59:46;;;;;;;20.25;7.63;;;;;;;3.92;61.91;99031.41;4974694;28;20050;-71
2021/04/09 07:02:17;;;;;;;13.82;7.22;;;;;;;5.14;58.58;99027.50;4974752;28;20041;-71
2021/04/09 07:04:46;;;;;;;12.27;7.05;;;;;;;6.40;55.01;99013.63;4974634;28;20058;-71
2021/04/09 07:07:13;;;;;;;21.88;8.25;;;;;;;6.05;54.70;99020.38;4974746;28;20030;-71
2021/04/09 07:09:40;;;;;;;9.65;6.50;;;;;;;7.72;51.41;99016.16;4974518;28;20030;-71
2021/04/09 07:12:06;;;;;;;11.93;6.60;;;;;;;8.70;48.11;99007.97;4974374;28;20034;-72
2021/04/09 07:14:48;;;;;;;17.10;8.43;;;;;;;8.46;48.93;99009.88;4974494;28;20023;-72
2021/04/09 07:17:28;;;;;;;11.98;6.30;;;;;;;8.44;48.12;99003.84;4974434;28;20030;-71
2021/04/09 07:20:07;;;;;;;16.08;7.63;;;;;;;7.33;51.93;99012.81;4974422;28;20558;-72
2021/04/09 07:22:33;;;;;;;14.45;7.10;;;;;;;7.76;51.07;99011.88;4974332;28;20250;-72
2021/04/09 07:25:06;;;;;;;17.90;8.05;;;;;;;8.56;49.79;99005.53;4974255;28;20030;-72
2021/04/09 07:27:31;;;;;;;18.25;7.68;;;;;;;9.33;47.52;98990.28;4972619;28;20055;-72
2021/04/09 07:29:57;;;;;;;17.77;6.90;;;;;;;8.80;48.03;98989.00;4974169;28;20027;-72
2021/04/09 07:32:25;;;;;;;20.17;8.05;;;;;;;9.17;47.89;98986.94;4974144;28;20115;-72
2021/04/09 07:34:58;;;;;;;15.38;8.10;;;;;;;9.04;48.31;98981.88;4974619;28;20015;-72
2021/04/09 07:37:24;;;;;;;14.27;7.85;;;;;;;10.09;46.22;98983.34;4974060;28;20101;-72
2021/04/09 07:39:57;;;;;;;12.68;7.15;;;;;;;9.83;45.85;98975.94;4974290;28;20109;-72
2021/04/09 07:42:49;;;;;;;11.60;6.97;;;;;;;11.17;43.50;98962.78;4974362;28;20114;-72
2021/04/09 07:45:16;;;;;;;12.73;6.25;;;;;;;9.36;47.13;98972.13;4972604;28;20078;-72
2021/04/09 07:47:54;;;;;;;10.45;6.50;;;;;;;9.51;47.10;98974.53;4973976;28;20445;-72
2021/04/09 07:50:23;;;;;;;11.35;5.72;;;;;;;11.57;43.36;98960.31;4973893;28;20031;-72
2021/04/09 07:52:51;;;;;;;9.60;6.25;;;;;;;12.91;39.57;98960.91;4973827;28;20026;-72
2021/04/09 07:55:22;;;;;;;8.55;6.10;;;;;;;14.11;38.01;98955.94;4939167;28;20032;-72
2021/04/09 07:57:48;;;;;;;15.95;6.72;;;;;;;12.96;38.81;98956.44;4954452;28;20528;-72
2021/04/09 08:00:25;;;;;;;13.52;7.05;;;;;;;13.16;38.00;98947.28;4954319;28;20039;-72
2021/04/09 08:02:53;;;;;;;11.77;6.95;;;;;;;13.20;38.50;98951.47;4954505;28;20027;-72
2021/04/09 08:05:24;;;;;;;9.02;6.40;;;;;;;11.78;40.82;98963.34;4954274;28;20015;-72
2021/04/09 08:07:51;;;;;;;10.05;6.47;;;;;;;12.53;39.66;98959.19;4954479;28;20074;-72
2021/04/09 08:10:19;;;;;;;13.68;6.82;;;;;;;11.27;40.21;98958.28;4954181;28;20082;-72
2021/04/09 08:12:51;;;;;;;12.70;7.18;;;;;;;10.86;41.22;98954.63;4954391;28;20385;-72
2021/04/09 08:15:23;;;;;;;10.90;6.47;;;;;;;11.63;40.17;98953.28;4953989;28;20055;-71
2021/04/09 08:18:09;;;;;;;11.60;6.30;;;;;;;11.61;39.95;98947.28;4954323;28;20054;-71
2021/04/09 08:20:42;;;;;;;15.77;6.43;;;;;;;11.67;40.43;98947.16;4954091;28;20049;-72
2021/04/09 08:23:12;;;;;;;10.23;6.28;;;;;;;13.47;37.34;98945.59;4954212;28;20057;-72
2021/04/09 08:25:39;;;;;;;12.38;6.95;;;;;;;13.66;36.68;98934.69;4953921;28;20082;-72
2021/04/09 08:28:07;;;;;;;9.50;6.05;;;;;;;13.15;36.32;98942.94;4953996;28;20027;-72
2021/04/09 08:30:35;;;;;;;12.32;6.03;;;;;;;11.89;39.56;98943.25;4954041;28;20023;-72
2021/04/09 08:33:01;;;;;;;13.57;6.25;;;;;;;12.25;39.02;98946.81;4953856;28;20027;-72
2021/04/09 08:35:27;;;;;;;9.05;5.85;;;;;;;11.43;40.20;98944.13;4953769;28;20023;-72
2021/04/09 08:37:55;;;;;;;12.23;7.13;;;;;;;12.93;38.06;98935.69;4953931;28;20074;-72
2021/04/09 08:40:21;;;;;;;16.52;6.45;;;;;;;11.50;40.05;98937.94;4953134;28;20503;-72
2021/04/09 08:42:47;;;;;;;9.40;5.57;;;;;;;11.50;40.79;98935.34;4953821;28;20154;-72
2021/04/09 08:45:14;;;;;;;11.85;6.25;;;;;;;12.14;40.61;98934.97;4953682;28;20139;-72
2021/04/09 08:47:41;;;;;;;11.18;5.15;;;;;;;12.91;38.50;98927.09;4953925;28;20507;-72
2021/04/09 08:50:11;;;;;;;10.88;5.32;;;;;;;12.69;38.02;98931.94;4953717;28;20032;-72
2021/04/09 08:52:42;;;;;;;15.50;5.03;;;;;;;12.58;38.29;98928.75;4953844;28;20432;-72
2021/04/09 08:55:10;;;;;;;11.50;5.65;;;;;;;12.67;38.68;98935.47;4953936;28;20042;-72
2021/04/09 08:57:38;;;;;;;15.95;5.40;;;;;;;12.05;39.15;98934.28;4953735;28;20089;-72
2021/04/09 09:00:11;;;;;;;8.05;5.35;;;;;;;12.02;39.41;98929.13;4953712;28;20097;-72
2021/04/09 09:02:44;;;;;;;9.57;5.18;;;;;;;13.34;37.86;98924.25;4953655;28;20031;-72
2021/04/09 09:05:20;;;;;;;23.38;9.85;;;;;;;13.06;37.12;98918.88;4953664;28;20086;-72
2021/04/09 09:07:45;;;;;;;14.65;6.38;;;;;;;12.39;38.33;98920.53;4953863;28;20034;-72
2021/04/09 09:10:23;;;;;;;14.93;5.35;;;;;;;13.38;37.48;98917.19;4953554;28;20030;-72
2021/04/09 09:13:04;;;;;;;12.10;5.30;;;;;;;13.78;36.15;98908.28;4953499;28;20035;-72
2021/04/09 09:15:41;;;;;;;9.00;4.90;;;;;;;13.69;37.10;98917.22;4953589;28;20031;-72
2021/04/09 09:18:35;;;;;;;13.15;5.30;;;;;;;13.66;35.83;98909.50;4953596;28;20031;-72
2021/04/09 09:21:09;;;;;;;7.38;5.55;;;;;;;14.79;34.82;98894.75;4944855;28;20070;-72
2021/04/09 09:24:01;;;;;;;9.63;5.07;;;;;;;14.92;35.08;98901.25;4953435;28;20030;-72
2021/04/09 09:26:38;;;;;;;9.07;5.60;;;;;;;15.80;32.14;98899.06;4948715;29;20485;-72
2021/04/09 09:29:27;;;;;;;6.63;5.07;;;;;;;15.93;31.59;98889.84;4953622;28;20039;-72
2021/04/09 09:31:52;;;;;;;10.98;5.15;;;;;;;15.34;32.44;98890.25;4953234;28;20027;-72
2021/04/09 09:34:17;;;;;;;7.97;5.05;;;;;;;15.84;32.69;98890.19;4953497;28;20078;-72
2021/04/09 09:37:11;;;;;;;9.40;4.90;;;;;;;15.40;31.80;98890.03;4953469;28;20023;-72
2021/04/09 09:39:48;;;;;;;6.85;3.75;;;;;;;16.26;28.82;98881.63;4953511;28;20126;-72
2021/04/09 09:42:20;;;;;;;8.63;4.20;;;;;;;15.66;30.55;98887.38;4953084;28;20050;-72
2021/04/09 09:44:52;;;;;;;6.35;3.75;;;;;;;15.70;28.80;98887.25;4953456;28;20027;-72
2021/04/09 09:47:34;;;;;;;9.93;4.70;;;;;;;16.16;29.26;98887.22;4953269;28;20030;-72
2021/04/09 09:50:02;;;;;;;7.32;3.72;;;;;;;16.42;27.95;98885.31;4953476;28;20031;-72
2021/04/09 09:52:47;;;;;;;4.70;3.65;;;;;;;16.42;28.76;98882.72;4956221;28;20027;-72
2021/04/09 09:55:40;;;;;;;4.25;2.83;;;;;;;15.87;26.87;98885.72;4956862;28;20464;-72
2021/04/09 09:58:16;;;;;;;6.85;3.33;;;;;;;15.67;27.52;98883.00;4955507;29;20042;-72
2021/04/09 10:00:44;;;;;;;6.35;3.20;;;;;;;15.85;27.75;98871.00;4956507;28;20054;-72
2021/04/09 10:03:12;;;;;;;14.82;6.35;;;;;;;16.06;29.06;98870.19;4956414;28;20440;-72
2021/04/09 10:05:38;;;;;;;9.25;3.78;;;;;;;15.75;27.76;98869.63;4956399;28;20023;-72
2021/04/09 10:08:04;;;;;;;5.05;3.25;;;;;;;16.06;26.55;98859.72;4956643;28;20034;-72
2021/04/09 10:10:41;;;;;;;5.20;3.08;;;;;;;15.40;26.67;98863.94;4956468;28;20023;-71
2021/04/09 10:13:14;;;;;;;4.22;3.30;;;;;;;15.92;27.68;98852.41;4956266;28;20026;-72
2021/04/09 10:15:40;;;;;;;5.07;2.78;;;;;;;15.22;26.19;98854.13;4956206;28;20473;-71
2021/04/09 10:18:06;;;;;;;6.38;2.58;;;;;;;14.69;26.43;98851.63;4955019;29;20110;-71
2021/04/09 10:20:32;;;;;;;3.80;2.63;;;;;;;14.83;26.80;98858.06;4956261;28;20060;-71
2021/04/09 10:22:57;;;;;;;15.30;7.78;;;;;;;15.43;26.24;98850.78;4956117;28;20059;-71
2021/04/09 10:25:33;;;;;;;10.13;5.05;;;;;;;14.89;26.69;98849.19;4956023;28;20456;-70
2021/04/09 10:27:59;;;;;;;5.28;2.50;;;;;;;15.48;26.17;98843.63;4956032;28;20396;-71
2021/04/09 10:30:32;;;;;;;5.28;2.85;;;;;;;16.17;26.73;98847.09;4955417;29;20035;-71
2021/04/09 10:32:58;;;;;;;4.95;3.30;;;;;;;16.79;25.38;98839.38;4956017;28;20020;-71
2021/04/09 10:35:25;;;;;;;5.63;2.90;;;;;;;16.64;25.35;98844.31;4955883;28;20023;-71
2021/04/09 10:37:51;;;;;;;6.50;3.28;;;;;;;15.76;26.07;98835.63;4955915;28;20023;-72
2021/04/09 10:40:17;;;;;;;4.30;2.70;;;;;;;15.02;26.53;98837.41;4955831;28;20078;-72
2021/04/09 10:42:58;;;;;;;5.80;3.35;;;;;;;15.56;27.60;98838.09;4954622;29;20035;-72
2021/04/09 10:45:24;;;;;;;5.65;2.90;;;;;;;15.67;26.77;98836.84;4955761;28;20035;-72
2021/04/09 10:47:52;;;;;;;5.45;3.70;;;;;;;15.57;27.50;98834.56;4955861;28;20027;-71
2021/04/09 10:50:18;;;;;;;13.10;3.85;;;;;;;15.10;28.26;98830.19;4955705;28;20027;-71
2021/04/09 10:52:43;;;;;;;3.97;3.25;;;;;;;15.21;27.92;98828.94;4954229;29;20027;-72
2021/04/09 10:55:09;;;;;;;5.07;3.22;;;;;;;15.46;29.40;98827.13;4955619;28;20106;-72
2021/04/09 10:57:35;;;;;;;5.63;3.03;;;;;;;15.68;28.87;98822.84;4903432;28;20413;-72
2021/04/09 11:00:04;;;;;;;3.42;2.63;;;;;;;16.06;28.11;98817.06;4955601;29;20033;-71
2021/04/09 11:02:29;;;;;;;6.28;2.80;;;;;;;15.71;27.16;98816.66;4954725;28;20440;-71
2021/04/09 11:04:57;;;;;;;11.82;4.57;;;;;;;15.35;27.90;98818.84;4955492;28;20027;-72
2021/04/09 11:07:48;;;;;;;5.15;3.17;;;;;;;15.19;28.36;98809.88;4955711;28;20114;-72
2021/04/09 11:10:35;;;;;;;4.63;2.90;;;;;;;15.47;28.58;98807.94;4955354;28;20034;-71
2021/04/09 11:13:01;;;;;;;7.50;3.30;;;;;;;15.36;27.99;98804.88;4955282;28;20043;-71
2021/04/09 11:15:38;;;;;;;6.25;2.67;;;;;;;15.09;28.28;98802.38;4955018;28;20047;-72
2021/04/09 11:18:05;;;;;;;11.52;3.53;;;;;;;15.03;28.81;98799.13;4955115;28;20027;-72
2021/04/09 11:20:33;;;;;;;7.53;2.90;;;;;;;14.72;29.32;98794.16;4955382;28;20034;-72
2021/04/09 11:23:03;;;;;;;8.60;3.75;;;;;;;15.01;29.02;98793.97;4954933;28;20090;-72
2021/04/09 11:25:32;;;;;;;6.25;2.80;;;;;;;14.65;28.89;98785.69;4954923;28;20023;-72
2021/04/09 11:27:58;;;;;;;11.65;3.60;;;;;;;14.70;29.64;98782.91;4953808;29;20512;-72
2021/04/09 11:30:24;;;;;;;6.03;2.88;;;;;;;14.42;29.53;98789.03;4953744;29;20039;-72
2021/04/09 11:32:52;;;;;;;4.55;2.85;;;;;;;14.48;29.24;98783.66;4954785;28;20114;-72
2021/04/09 11:35:19;;;;;;;5.32;2.45;;;;;;;14.44;28.60;98782.00;4954878;28;20027;-72
2021/04/09 11:37:54;;;;;;;14.15;3.17;;;;;;;14.62;28.81;98764.94;4954888;28;20042;-72
2021/04/09 11:40:41;;;;;;;6.15;2.30;;;;;;;14.76;28.71;98770.50;4954913;28;20157;-72
2021/04/09 11:43:07;;;;;;;5.60;3.05;;;;;;;15.00;28.13;98766.19;4954490;28;20027;-72
2021/04/09 11:45:48;;;;;;;5.00;2.92;;;;;;;15.09;27.44;98765.84;4954618;28;20027;-72
2021/04/09 11:48:24;;;;;;;4.30;2.40;;;;;;;14.96;28.45;98763.75;4954604;28;20069;-72
2021/04/09 11:50:50;;;;;;;6.68;2.80;;;;;;;14.84;27.52;98749.34;4954590;28;20481;-72
2021/04/09 11:53:15;;;;;;;13.48;3.00;;;;;;;14.91;27.64;98751.69;4954372;28;20102;-72
2021/04/09 11:55:41;;;;;;;13.30;2.45;;;;;;;15.06;28.20;98750.28;4954478;28;20098;-72
2021/04/09 11:58:42;;;;;;;13.98;2.30;;;;;;;14.88;27.83;98745.75;4954857;28;20109;-72
2021/04/09 12:01:08;;;;;;;8.27;2.80;;;;;;;15.20;28.63;98741.13;4947493;29;20071;-72
2021/04/09 12:03:44;;;;;;;10.57;2.30;;;;;;;15.03;27.92;98739.97;4953053;29;20448;-71
2021/04/09 12:06:14;;;;;;;4.30;2.40;;;;;;;15.13;27.57;98746.56;4954506;28;20031;-71
2021/04/09 12:08:40;;;;;;;10.32;2.55;;;;;;;15.51;27.45;98736.41;4954262;28;20031;-72
2021/04/09 12:11:07;;;;;;;4.72;2.45;;;;;;;15.71;26.46;98733.06;4954294;28;20029;-71
2021/04/09 12:13:35;;;;;;;5.00;2.45;;;;;;;15.85;26.82;98735.13;4954037;28;20039;-72
2021/04/09 12:16:00;;;;;;;6.57;2.17;;;;;;;16.18;26.33;98738.97;4954147;28;20082;-71
2021/04/09 12:18:25;;;;;;;6.63;3.53;;;;;;;16.52;25.86;98732.31;4954043;28;20480;-72
2021/04/09 12:20:51;;;;;;;4.90;2.30;;;;;;;17.10;26.28;98723.72;4954290;28;20046;-72
2021/04/09 12:23:16;;;;;;;7.53;2.05;;;;;;;17.56;24.29;98727.69;4953939;28;20552;-72
2021/04/09 12:25:41;;;;;;;4.65;2.22;;;;;;;17.07;24.24;98723.88;4953964;28;20031;-72
2021/04/09 12:28:07;;;;;;;5.00;2.47;;;;;;;16.86;25.20;98723.03;4954089;28;20023;-72
2021/04/09 12:30:32;;;;;;;5.60;2.00;;;;;;;16.91;25.18;98713.22;4952917;29;20543;-72
2021/04/09 12:32:57;;;;;;;13.05;2.40;;;;;;;17.06;25.02;98712.53;4953872;28;20507;-71
2021/04/09 12:35:23;;;;;;;6.80;2.33;;;;;;;17.00;23.93;98712.81;4954162;28;20023;-72
2021/04/09 12:37:48;;;;;;;6.28;2.45;;;;;;;16.79;24.93;98719.00;4952674;29;20027;-72
2021/04/09 12:40:14;;;;;;;2.30;2.08;;;;;;;16.44;25.26;98708.28;4954001;28;20396;-71
2021/04/09 12:42:39;;;;;;;5.57;2.15;;;;;;;16.59;24.54;98707.63;4953475;28;20093;-72
2021/04/09 12:45:05;;;;;;;4.07;2.20;;;;;;;16.44;25.09;98698.69;4953943;28;20024;-72
2021/04/09 12:47:31;;;;;;;19.58;11.88;;;;;;;16.89;25.13;98694.97;4953632;28;20078;-72
2021/04/09 12:49:56;;;;;;;6.32;2.03;;;;;;;17.32;26.04;98692.16;4954127;28;20019;-72
2021/04/09 12:52:22;;;;;;;5.80;2.65;;;;;;;17.73;24.49;98688.44;4953661;28;20055;-72
2021/04/09 12:54:47;;;;;;;4.88;2.17;;;;;;;17.72;23.60;98683.25;4953907;28;20081;-72
2021/04/09 12:57:12;;;;;;;4.30;2.15;;;;;;;17.51;23.61;98687.75;4953842;28;20027;-71
2021/04/09 12:59:38;;;;;;;5.93;2.00;;;;;;;17.97;24.11;98680.31;4953726;28;20029;-71
2021/04/09 13:02:03;;;;;;;7.28;2.25;;;;;;;17.84;24.70;98679.19;4953553;28;20138;-72
2021/04/09 13:04:29;;;;;;;6.60;2.10;;;;;;;17.97;23.12;98673.28;4953596;28;20106;-72
2021/04/09 13:06:59;;;;;;;5.25;1.95;;;;;;;17.52;24.33;98673.72;4953586;28;20110;-72
2021/04/09 13:09:25;;;;;;;5.38;2.30;;;;;;;17.57;24.32;98671.75;4953608;28;20050;-72
2021/04/09 13:11:52;;;;;;;3.25;2.05;;;;;;;17.83;23.91;98669.66;4953541;28;20087;-72
2021/04/09 13:14:17;;;;;;;2.67;1.75;;;;;;;17.67;24.66;98662.50;4953609;28;20027;-72
2021/04/09 13:16:45;;;;;;;7.25;1.95;;;;;;;17.89;24.09;98661.47;4953281;28;20054;-72
2021/04/09 13:19:10;;;;;;;5.70;2.20;;;;;;;17.76;24.49;98660.41;4953785;28;20023;-72
2021/04/09 13:21:36;;;;;;;9.13;2.03;;;;;;;17.85;24.16;98662.56;4953449;28;20035;-72
2021/04/09 13:24:01;;;;;;;3.25;1.63;;;;;;;17.77;24.33;98652.44;4953526;28;20024;-72
2021/04/09 13:26:27;;;;;;;11.00;2.22;;;;;;;17.32;23.76;98656.34;4955273;28;20531;-72
2021/04/09 13:28:52;;;;;;;6.45;2.40;;;;;;;17.44;24.28;98649.66;4957235;28;20084;-72
2021/04/09 13:31:18;;;;;;;4.13;2.35;;;;;;;17.72;24.97;98644.78;4955906;29;20023;-71
2021/04/09 13:33:44;;;;;;;6.90;3.08;;;;;;;17.93;24.63;98644.66;4957103;28;20066;-72
2021/04/09 13:36:12;;;;;;;2.35;1.50;;;;;;;17.71;24.17;98637.00;4957054;28;20059;-71
2021/04/09 13:38:38;;;;;;;4.43;2.08;;;;;;;17.84;23.71;98637.25;4957120;28;20034;-71
2021/04/09 13:41:04;;;;;;;7.88;1.88;;;;;;;17.80;24.45;98636.59;4957017;28;20035;-72
2021/04/09 13:43:30;;;;;;;8.20;2.05;;;;;;;17.72;23.13;98629.06;4957288;28;20027;-72
2021/04/09 13:45:56;;;;;;;4.43;1.95;;;;;;;18.06;23.10;98631.81;4956753;28;20089;-71
2021/04/09 13:48:24;;;;;;;4.45;1.90;;;;;;;18.40;23.05;98625.66;4956898;28;20059;-72
2021/04/09 13:50:50;;;;;;;3.47;1.88;;;;;;;18.28;23.18;98624.53;4956819;28;20031;-72
2021/04/09 13:53:16;;;;;;;5.78;1.80;;;;;;;17.31;25.81;98612.75;4956840;28;20098;-72
2021/04/09 13:55:41;;;;;;;4.57;1.90;;;;;;;17.83;24.83;98601.50;4956770;28;20103;-72
2021/04/09 13:58:07;;;;;;;6.03;1.65;;;;;;;17.42;25.79;98604.38;4956760;28;20546;-72
2021/04/09 14:00:34;;;;;;;5.68;2.00;;;;;;;17.76;24.19;98605.38;4955310;29;20023;-72
2021/04/09 14:03:00;;;;;;;5.68;2.47;;;;;;;17.16;25.50;98602.97;4956669;28;20109;-72
2021/04/09 14:05:26;;;;;;;3.05;1.73;;;;;;;17.65;24.48;98604.09;4956428;28;20440;-71
2021/04/09 14:07:51;;;;;;;4.75;1.95;;;;;;;17.93;24.68;98600.09;4956591;28;20027;-72
2021/04/09 14:10:18;;;;;;;4.60;2.22;;;;;;;17.73;24.59;98588.84;4956575;28;20031;-71
2021/04/09 14:12:44;;;;;;;9.10;2.33;;;;;;;18.37;24.33;98583.84;4956424;28;20031;-71
2021/04/09 14:15:11;;;;;;;7.32;2.03;;;;;;;18.54;24.54;98581.19;4956330;28;20463;-72
2021/04/09 14:17:38;;;;;;;4.03;1.75;;;;;;;18.77;23.46;98573.88;4954847;29;20038;-71
2021/04/09 14:20:09;;;;;;;3.90;1.83;;;;;;;17.60;24.75;98582.53;4956286;28;20038;-72
2021/04/09 14:22:35;;;;;;;8.10;2.30;;;;;;;17.66;25.65;98582.19;4956112;28;20543;-71
2021/04/09 14:25:00;;;;;;;7.07;2.35;;;;;;;18.53;23.48;98576.88;4956129;28;20027;-71
2021/04/09 14:27:26;;;;;;;4.25;2.22;;;;;;;18.69;24.60;98580.38;4956423;28;20074;-71
2021/04/09 14:29:52;;;;;;;5.88;1.70;;;;;;;18.88;23.81;98574.13;4954844;29;20027;-71
2021/04/09 14:32:19;;;;;;;2.05;1.70;;;;;;;18.67;23.79;98571.72;4956093;28;20050;-71
2021/04/09 14:34:45;;;;;;;6.28;2.58;;;;;;;17.55;24.18;98568.78;4956015;28;20027;-71
2021/04/09 14:37:10;;;;;;;7.45;2.05;;;;;;;16.69;25.55;98572.88;4954999;28;20404;-71
2021/04/09 14:39:37;;;;;;;4.95;2.03;;;;;;;17.64;24.70;98568.31;4955875;28;20099;-71
2021/04/09 14:42:02;;;;;;;6.75;1.83;;;;;;;17.87;23.89;98563.72;4955712;28;20429;-71
2021/04/09 14:44:28;;;;;;;3.50;1.58;;;;;;;16.33;26.05;98575.38;4955863;28;20027;-71
2021/04/09 14:46:53;;;;;;;5.10;2.10;;;;;;;17.24;25.02;98563.34;4955743;28;20118;-71
2021/04/09 14:49:18;;;;;;;5.90;3.45;;;;;;;17.64;25.47;98573.56;4955739;28;20110;-71
2021/04/09 14:51:44;;;;;;;4.65;2.78;;;;;;;18.05;24.14;98568.03;4954404;29;20035;-72
2021/04/09 14:54:09;;;;;;;4.68;1.92;;;;;;;17.87;22.70;98566.34;4954525;29;20031;-72
2021/04/09 14:56:34;;;;;;;4.20;1.63;;;;;;;18.37;21.97;98557.59;4954459;29;20034;-71
2021/04/09 14:59:00;;;;;;;6.30;1.90;;;;;;;18.82;22.17;98553.47;4955555;28;20023;-72
2021/04/09 15:01:25;;;;;;;3.17;1.77;;;;;;;18.47;23.91;98558.84;4955579;28;20024;-72
2021/04/09 15:03:53;;;;;;;9.75;1.95;;;;;;;17.98;26.49;98564.00;4955426;28;20480;-72
2021/04/09 15:06:21;;;;;;;4.05;1.70;;;;;;;17.37;26.33;98569.69;4955270;28;20123;-71
2021/04/09 15:08:46;;;;;;;7.10;2.13;;;;;;;17.29;26.55;98570.06;4955447;28;20098;-72
2021/04/09 15:11:12;;;;;;;5.32;1.92;;;;;;;17.51;26.87;98567.25;4955428;28;20433;-71
2021/04/09 15:13:38;;;;;;;3.05;1.92;;;;;;;16.85;26.47;98561.72;4955553;28;20031;-72
2021/04/09 15:16:04;;;;;;;6.53;2.05;;;;;;;16.47;28.00;98571.28;4954903;28;20030;-71
2021/04/09 15:18:29;;;;;;;5.38;2.25;;;;;;;16.56;27.41;98556.03;4962678;28;20031;-72
2021/04/09 15:20:55;;;;;;;3.50;2.35;;;;;;;17.02;26.98;98553.06;4963290;28;20030;-73
2021/04/09 15:23:21;;;;;;;7.68;3.45;;;;;;;17.57;25.45;98556.47;4962877;28;20019;-72
2021/04/09 15:25:47;;;;;;;4.20;2.63;;;;;;;16.69;26.82;98562.41;4961731;28;20023;-71
2021/04/09 15:28:13;;;;;;;6.55;2.20;;;;;;;17.19;26.08;98567.03;4963106;28;20026;-71
2021/04/09 15:30:38;;;;;;;6.45;2.20;;;;;;;17.12;26.88;98560.41;4962518;28;20038;-71
2021/04/09 15:33:04;;;;;;;4.63;2.20;;;;;;;16.42;27.30;98568.88;4972874;28;20558;-72
2021/04/09 15:35:30;;;;;;;4.95;2.30;;;;;;;16.34;27.67;98565.75;4973991;28;20380;-70
2021/04/09 15:37:55;;;;;;;5.57;2.30;;;;;;;17.23;26.49;98552.03;4973519;28;20392;-71
2021/04/09 15:40:20;;;;;;;4.70;2.17;;;;;;;17.65;25.92;98554.31;4973215;28;20034;-71
2021/04/09 15:42:46;;;;;;;6.45;2.35;;;;;;;17.61;26.01;98551.91;4973919;28;20031;-70
2021/04/09 15:45:12;;;;;;;3.72;2.40;;;;;;;17.01;27.51;98557.44;4973841;28;20031;-72
2021/04/09 15:47:40;;;;;;;4.43;2.00;;;;;;;16.63;27.99;98556.59;4962119;28;20023;-72
2021/04/09 15:50:06;;;;;;;3.95;2.03;;;;;;;16.86;27.11;98558.16;4949473;28;20022;-72
2021/04/09 15:52:31;;;;;;;6.03;2.05;;;;;;;17.19;26.56;98548.72;4969808;28;20022;-72